Time;durP1;ratioP1;P1;durP2;ratioP2;P2;SDS_P1;SDS_P2;PMS_P1;PMS_P2;Temp;Humidity;BMP_temperature;BMP_pressure;BME280_temperature;BME280_humidity;BME280_pressure;Samples;Min_cycle;Max_cycle;Signal;HPM_P1;HPM_P2
2023/09/19 00:00:27;;;;;;;14.88;3.03;;;17.30;91.60;;;;;;5054473;28;20075;-78
2023/09/19 00:03:00;;;;;;;7.95;1.55;;;17.30;91.50;;;;;;5054448;28;20033;-78
2023/09/19 00:05:27;;;;;;;11.48;2.35;;;17.30;91.50;;;;;;5054366;28;20026;-78
2023/09/19 00:07:54;;;;;;;4.05;1.52;;;17.30;91.50;;;;;;5036831;28;20090;-78
2023/09/19 00:10:24;;;;;;;6.28;1.55;;;17.30;91.50;;;;;;5036960;28;20028;-78
2023/09/19 00:12:52;;;;;;;10.82;2.38;;;17.40;91.40;;;;;;5054208;28;20045;-78
2023/09/19 00:15:18;;;;;;;8.32;2.03;;;17.40;91.40;;;;;;5053138;28;20029;-78
2023/09/19 00:17:44;;;;;;;9.98;2.20;;;17.30;91.30;;;;;;5053281;28;20033;-78
2023/09/19 00:20:12;;;;;;;7.75;1.75;;;17.30;91.40;;;;;;5053177;28;20025;-78
2023/09/19 00:22:44;;;;;;;7.38;1.85;;;17.30;91.40;;;;;;5037218;28;20028;-78
2023/09/19 00:25:11;;;;;;;7.93;2.35;;;17.30;91.30;;;;;;5053022;28;20033;-78
2023/09/19 00:27:41;;;;;;;5.55;1.55;;;17.20;91.30;;;;;;5053864;28;20021;-78
2023/09/19 00:30:15;;;;;;;7.25;1.83;;;17.20;91.40;;;;;;5053851;28;20026;-78
2023/09/19 00:32:42;;;;;;;4.18;1.42;;;17.20;91.40;;;;;;5052850;28;20021;-78
2023/09/19 00:35:10;;;;;;;11.18;2.03;;;17.20;91.40;;;;;;5052673;28;20030;-78
2023/09/19 00:37:37;;;;;;;6.78;1.60;;;17.20;91.50;;;;;;5052824;28;20087;-78
2023/09/19 00:40:05;;;;;;;6.80;1.40;;;17.20;91.40;;;;;;5052319;28;20061;-78
2023/09/19 00:42:31;;;;;;;10.98;1.50;;;17.10;91.40;;;;;;5052744;28;20029;-78
2023/09/19 00:44:57;;;;;;;7.68;1.45;;;17.10;91.40;;;;;;5035480;28;20056;-78
2023/09/19 00:47:23;;;;;;;6.78;1.45;;;17.10;91.50;;;;;;5053439;28;20038;-78
2023/09/19 00:49:52;;;;;;;5.00;1.73;;;17.00;91.50;;;;;;5036154;28;20033;-78
2023/09/19 00:52:23;;;;;;;6.35;1.42;;;17.00;91.60;;;;;;5052652;28;20017;-78
2023/09/19 00:54:50;;;;;;;5.20;1.35;;;17.00;91.60;;;;;;5052533;28;20025;-78
2023/09/19 00:57:19;;;;;;;7.00;1.75;;;16.90;91.60;;;;;;5052553;28;20116;-79
2023/09/19 00:59:48;;;;;;;11.50;1.98;;;16.90;91.70;;;;;;5052435;28;20041;-78
2023/09/19 01:02:14;;;;;;;6.47;1.83;;;16.90;91.60;;;;;;5036322;28;20059;-78
2023/09/19 01:04:40;;;;;;;7.47;1.65;;;16.90;91.70;;;;;;5035864;28;20056;-78
2023/09/19 01:07:08;;;;;;;6.18;1.60;;;16.80;91.70;;;;;;5053257;28;20026;-78
2023/09/19 01:09:34;;;;;;;5.85;1.38;;;16.80;91.70;;;;;;5052424;28;20021;-78
2023/09/19 01:12:05;;;;;;;6.72;1.75;;;16.80;91.80;;;;;;5053267;28;20025;-78
2023/09/19 01:15:04;;;;;;;2.65;1.17;;;16.60;91.80;;;;;;5053314;28;20037;-78
2023/09/19 01:17:39;;;;;;;5.70;1.73;;;16.70;91.80;;;;;;5051877;28;20037;-78
2023/09/19 01:20:23;;;;;;;8.30;1.73;;;16.60;91.80;;;;;;5053184;28;20030;-78
2023/09/19 01:23:09;;;;;;;8.00;1.60;;;16.60;91.70;;;;;;5053228;28;20048;-78
2023/09/19 01:26:05;;;;;;;8.82;2.08;;;16.50;91.90;;;;;;5052181;28;20036;-78
2023/09/19 01:28:47;;;;;;;8.52;1.50;;;16.50;92.00;;;;;;5052231;28;20035;-78
2023/09/19 01:31:13;;;;;;;9.27;1.98;;;16.50;91.90;;;;;;5053166;28;20048;-78
2023/09/19 01:34:01;;;;;;;12.50;2.88;;;16.50;91.80;;;;;;5051931;28;20026;-78
2023/09/19 01:36:34;;;;;;;6.75;1.45;;;16.50;91.90;;;;;;5053068;28;20030;-78
2023/09/19 01:39:05;;;;;;;6.93;1.48;;;16.50;91.90;;;;;;5052873;28;20030;-78
2023/09/19 01:42:06;;;;;;;8.27;1.70;;;16.50;91.80;;;;;;5053027;28;20034;-78
2023/09/19 01:44:51;;;;;;;7.68;1.63;;;16.40;91.70;;;;;;5053028;28;20056;-78
2023/09/19 01:47:48;;;;;;;9.32;1.77;;;16.30;91.60;;;;;;5051964;28;20026;-78
2023/09/19 01:50:44;;;;;;;4.47;1.33;;;16.40;91.70;;;;;;5051075;28;20042;-78
2023/09/19 01:53:27;;;;;;;4.22;1.40;;;16.30;91.80;;;;;;5051931;28;20044;-78
2023/09/19 01:55:54;;;;;;;5.60;1.40;;;16.20;91.50;;;;;;5051905;28;20049;-78
2023/09/19 01:58:34;;;;;;;7.80;1.77;;;16.20;91.60;;;;;;5056585;28;20040;-78
2023/09/19 02:01:01;;;;;;;5.53;1.73;;;16.20;91.40;;;;;;5055700;28;20049;-78
2023/09/19 02:03:28;;;;;;;5.07;1.15;;;16.20;91.40;;;;;;5055644;28;20021;-78
2023/09/19 02:05:55;;;;;;;5.90;1.50;;;16.20;90.90;;;;;;5055586;28;20026;-78
2023/09/19 02:08:25;;;;;;;3.53;1.20;;;16.20;91.20;;;;;;5055489;28;20029;-79
2023/09/19 02:10:52;;;;;;;4.07;1.27;;;16.20;91.10;;;;;;5056597;28;20076;-78
2023/09/19 02:13:19;;;;;;;7.45;1.50;;;16.10;90.80;;;;;;5039358;28;20404;-78
2023/09/19 02:15:46;;;;;;;6.50;1.98;;;16.20;91.00;;;;;;5055381;28;20041;-78
2023/09/19 02:18:12;;;;;;;6.63;1.80;;;16.20;90.80;;;;;;5055591;28;20013;-78
2023/09/19 02:20:38;;;;;;;5.97;1.38;;;16.20;90.90;;;;;;5055320;28;20036;-78
2023/09/19 02:23:05;;;;;;;6.30;2.10;;;16.20;90.70;;;;;;5055318;28;20033;-78
2023/09/19 02:25:32;;;;;;;6.15;1.88;;;16.20;90.70;;;;;;5038863;28;20029;-78
2023/09/19 02:27:58;;;;;;;5.85;1.45;;;16.10;90.60;;;;;;5055252;28;20026;-78
2023/09/19 02:30:25;;;;;;;4.03;1.27;;;16.20;90.60;;;;;;5055313;28;20037;-78
2023/09/19 02:32:51;;;;;;;3.88;1.30;;;16.20;90.60;;;;;;5056134;28;20017;-78
2023/09/19 02:35:19;;;;;;;9.77;1.75;;;16.20;90.90;;;;;;5055969;28;20029;-78
2023/09/19 02:37:45;;;;;;;5.97;1.33;;;16.20;90.40;;;;;;5038703;28;20029;-78
2023/09/19 02:40:25;;;;;;;4.97;1.60;;;16.20;90.30;;;;;;5038301;28;20072;-78
2023/09/19 02:42:54;;;;;;;7.43;1.67;;;16.20;90.70;;;;;;5040298;28;20038;-78
2023/09/19 02:45:20;;;;;;;5.25;1.98;;;16.10;90.20;;;;;;5054921;28;20026;-78
2023/09/19 02:47:46;;;;;;;6.32;1.50;;;16.20;90.30;;;;;;5055750;28;20057;-78
2023/09/19 02:50:13;;;;;;;4.90;1.20;;;16.20;90.20;;;;;;5055785;28;20060;-78
2023/09/19 02:52:43;;;;;;;8.43;1.88;;;16.20;90.20;;;;;;5054804;28;20025;-78
2023/09/19 02:55:09;;;;;;;6.65;1.42;;;16.10;90.20;;;;;;5038817;28;20018;-78
2023/09/19 02:57:36;;;;;;;6.05;1.77;;;16.00;90.10;;;;;;5054787;28;20439;-78
2023/09/19 03:00:02;;;;;;;8.05;1.40;;;15.90;90.20;;;;;;5038214;28;20022;-78
2023/09/19 03:02:28;;;;;;;5.03;1.60;;;15.90;90.30;;;;;;5054606;28;20033;-78
2023/09/19 03:04:56;;;;;;;7.20;1.50;;;15.90;90.30;;;;;;5021820;28;20025;-78
2023/09/19 03:07:22;;;;;;;7.32;1.58;;;15.90;90.20;;;;;;5055232;28;20032;-78
2023/09/19 03:09:47;;;;;;;5.72;1.35;;;15.90;90.30;;;;;;5037332;28;20026;-78
2023/09/19 03:12:15;;;;;;;8.70;1.63;;;15.80;90.20;;;;;;5054452;28;20057;-78
2023/09/19 03:14:41;;;;;;;6.90;1.50;;;15.80;90.10;;;;;;5038228;28;20025;-78
2023/09/19 03:17:09;;;;;;;7.22;1.63;;;15.80;90.10;;;;;;5054363;28;20030;-78
2023/09/19 03:19:34;;;;;;;5.43;1.75;;;15.80;90.00;;;;;;5055274;28;20021;-78
2023/09/19 03:22:00;;;;;;;4.70;1.40;;;15.80;89.80;;;;;;5054187;28;20060;-78
2023/09/19 03:24:26;;;;;;;3.55;1.42;;;15.80;89.60;;;;;;5055285;28;20033;-78
2023/09/19 03:26:52;;;;;;;7.03;1.48;;;15.80;89.40;;;;;;5054111;28;20093;-78
2023/09/19 03:29:18;;;;;;;7.15;1.30;;;15.70;89.30;;;;;;5037542;28;20132;-78
2023/09/19 03:31:43;;;;;;;8.52;1.85;;;15.60;89.30;;;;;;5053987;28;20053;-78
2023/09/19 03:34:09;;;;;;;8.35;2.22;;;15.60;88.90;;;;;;5037414;28;20044;-78
2023/09/19 03:36:35;;;;;;;6.68;1.70;;;15.60;89.30;;;;;;5053893;28;20097;-78
2023/09/19 03:39:01;;;;;;;4.53;1.00;;;15.60;88.90;;;;;;5037398;28;20037;-78
2023/09/19 03:41:27;;;;;;;5.32;1.10;;;15.60;88.90;;;;;;5053642;28;20046;-78
2023/09/19 03:43:52;;;;;;;5.90;1.63;;;15.60;89.00;;;;;;5020873;28;20132;-78
2023/09/19 03:46:18;;;;;;;6.35;1.38;;;15.60;88.70;;;;;;5054677;28;20048;-78
2023/09/19 03:48:44;;;;;;;6.35;1.20;;;15.70;88.70;;;;;;5054666;28;20033;-78
2023/09/19 03:51:10;;;;;;;5.05;1.30;;;15.70;88.40;;;;;;5037092;28;20091;-78
2023/09/19 03:53:36;;;;;;;5.38;1.25;;;15.70;88.30;;;;;;5053761;28;20021;-78
2023/09/19 03:56:02;;;;;;;3.85;1.40;;;15.60;88.10;;;;;;5037001;28;20052;-78
2023/09/19 03:58:28;;;;;;;8.00;1.55;;;15.70;88.20;;;;;;5053592;28;20104;-78
2023/09/19 04:00:58;;;;;;;6.43;1.73;;;15.60;87.90;;;;;;5036950;28;20037;-78
2023/09/19 04:03:28;;;;;;;6.35;1.58;;;15.70;88.30;;;;;;5054391;28;20040;-78
2023/09/19 04:05:54;;;;;;;6.00;1.15;;;15.70;87.90;;;;;;5053450;28;20036;-78
2023/09/19 04:08:19;;;;;;;6.13;1.60;;;15.60;88.00;;;;;;5053380;28;20029;-78
2023/09/19 04:10:45;;;;;;;3.85;1.45;;;15.60;88.40;;;;;;5053319;28;20049;-78
2023/09/19 04:13:11;;;;;;;7.15;1.50;;;15.60;88.50;;;;;;5053346;28;20033;-78
2023/09/19 04:15:37;;;;;;;6.18;1.23;;;15.60;88.50;;;;;;5054187;28;20036;-78
2023/09/19 04:18:03;;;;;;;6.15;1.35;;;15.60;88.60;;;;;;5036650;28;20029;-78
2023/09/19 04:20:29;;;;;;;7.18;1.40;;;15.60;88.70;;;;;;5053583;28;20037;-78
2023/09/19 04:22:55;;;;;;;6.63;1.40;;;15.60;88.70;;;;;;5053021;28;20068;-78
2023/09/19 04:25:21;;;;;;;4.05;1.13;;;15.60;88.60;;;;;;5053068;28;20033;-78
2023/09/19 04:27:47;;;;;;;4.22;1.10;;;15.70;88.70;;;;;;5052990;28;20025;-78
2023/09/19 04:30:14;;;;;;;6.18;1.70;;;15.70;88.90;;;;;;5053934;28;20081;-78
2023/09/19 04:32:40;;;;;;;5.85;1.17;;;15.70;88.70;;;;;;5053877;28;20077;-78
2023/09/19 04:35:10;;;;;;;6.57;1.38;;;15.60;88.80;;;;;;5053757;28;20029;-78
2023/09/19 04:37:41;;;;;;;7.95;1.35;;;15.60;89.10;;;;;;5053754;28;20029;-78
2023/09/19 04:40:19;;;;;;;6.80;1.13;;;15.50;89.10;;;;;;5052550;28;20100;-78
2023/09/19 04:42:46;;;;;;;5.93;1.23;;;15.50;89.60;;;;;;5053038;28;20544;-78
2023/09/19 04:45:11;;;;;;;4.00;1.10;;;15.50;89.70;;;;;;5053601;28;20021;-78
2023/09/19 04:47:38;;;;;;;9.18;2.03;;;15.50;89.80;;;;;;5036074;28;20064;-78
2023/09/19 04:50:11;;;;;;;2.53;1.08;;;15.50;90.00;;;;;;5036249;28;20052;-79
2023/09/19 04:52:39;;;;;;;5.63;1.20;;;15.50;90.00;;;;;;5052599;28;20079;-79
2023/09/19 04:55:05;;;;;;;5.88;1.65;;;15.50;90.00;;;;;;5036172;28;20029;-79
2023/09/19 04:57:31;;;;;;;3.63;1.27;;;15.60;90.00;;;;;;5052457;28;20029;-78
2023/09/19 04:59:57;;;;;;;4.18;1.40;;;15.60;90.10;;;;;;5052401;28;20092;-78
2023/09/19 05:02:23;;;;;;;4.60;1.23;;;15.60;90.10;;;;;;5036069;28;20033;-78
2023/09/19 05:04:48;;;;;;;4.88;1.30;;;15.60;90.20;;;;;;5036217;28;20033;-78
2023/09/19 05:07:14;;;;;;;5.18;1.50;;;15.60;90.20;;;;;;5035849;28;20044;-79
2023/09/19 05:09:42;;;;;;;5.57;1.13;;;15.60;90.30;;;;;;5019575;28;20013;-79
2023/09/19 05:12:10;;;;;;;6.97;1.25;;;15.50;90.40;;;;;;5052183;28;20024;-79
2023/09/19 05:14:36;;;;;;;7.30;1.65;;;15.50;90.40;;;;;;5052427;28;20032;-78
2023/09/19 05:17:04;;;;;;;6.47;1.33;;;15.60;90.50;;;;;;5052263;28;20045;-78
2023/09/19 05:19:29;;;;;;;6.75;1.40;;;15.60;90.50;;;;;;5052361;28;20021;-78
2023/09/19 05:21:55;;;;;;;8.10;1.48;;;15.60;90.60;;;;;;5035719;28;20393;-78
2023/09/19 05:24:23;;;;;;;6.15;1.98;;;15.50;90.60;;;;;;5053113;28;20041;-78
2023/09/19 05:26:48;;;;;;;3.53;1.13;;;15.60;90.60;;;;;;5036059;28;20093;-78
2023/09/19 05:29:14;;;;;;;5.40;1.38;;;15.60;90.60;;;;;;5052211;28;20032;-78
2023/09/19 05:31:40;;;;;;;5.35;1.60;;;15.60;91.00;;;;;;5053144;28;20480;-78
2023/09/19 05:34:06;;;;;;;8.52;1.52;;;15.60;90.70;;;;;;5039704;28;20017;-78
2023/09/19 05:36:33;;;;;;;6.68;1.48;;;15.60;90.80;;;;;;5057162;28;20030;-78
2023/09/19 05:38:59;;;;;;;4.60;1.23;;;15.60;90.80;;;;;;5056088;28;20045;-78
2023/09/19 05:41:25;;;;;;;5.85;1.33;;;15.60;90.80;;;;;;5056954;28;20056;-78
2023/09/19 05:43:50;;;;;;;8.00;1.33;;;15.50;90.90;;;;;;5039540;28;20026;-78
2023/09/19 05:46:16;;;;;;;7.78;1.65;;;15.60;90.90;;;;;;5039429;28;20030;-78
2023/09/19 05:48:44;;;;;;;9.05;1.48;;;15.60;91.10;;;;;;5056966;28;20020;-78
2023/09/19 05:51:09;;;;;;;6.50;1.40;;;15.50;91.10;;;;;;5056043;28;20014;-78
2023/09/19 05:53:35;;;;;;;6.13;1.40;;;15.50;91.20;;;;;;5055948;28;20365;-78
2023/09/19 05:56:01;;;;;;;5.03;1.77;;;15.50;91.10;;;;;;5056805;28;20022;-78
2023/09/19 05:58:27;;;;;;;7.32;2.35;;;15.50;91.20;;;;;;5055756;28;20048;-78
2023/09/19 06:00:52;;;;;;;5.93;1.13;;;15.50;91.20;;;;;;5055854;28;20049;-78
2023/09/19 06:03:18;;;;;;;4.25;1.17;;;15.50;91.20;;;;;;5055831;28;20040;-78
2023/09/19 06:05:46;;;;;;;5.82;1.50;;;15.50;91.40;;;;;;5022939;28;20461;-78
2023/09/19 06:08:11;;;;;;;5.30;1.73;;;15.50;91.60;;;;;;5056543;28;20081;-78
2023/09/19 06:10:37;;;;;;;9.02;1.58;;;15.50;91.60;;;;;;5056491;28;20033;-77
2023/09/19 06:13:09;;;;;;;5.38;1.25;;;15.50;91.60;;;;;;5038973;28;20133;-78
2023/09/19 06:15:35;;;;;;;8.10;1.17;;;15.50;91.70;;;;;;5055595;28;20032;-78
2023/09/19 06:18:02;;;;;;;7.18;1.60;;;15.50;91.80;;;;;;5055466;28;20033;-78
2023/09/19 06:20:28;;;;;;;5.95;1.70;;;15.50;91.90;;;;;;5055418;28;20089;-77
2023/09/19 06:22:54;;;;;;;6.38;1.30;;;15.50;91.90;;;;;;5056371;28;20037;-77
2023/09/19 06:25:20;;;;;;;4.93;1.50;;;15.50;92.00;;;;;;5055378;28;20021;-78
2023/09/19 06:27:52;;;;;;;5.22;1.35;;;15.50;91.90;;;;;;5056189;28;20469;-78
2023/09/19 06:30:18;;;;;;;4.65;1.17;;;15.70;92.00;;;;;;5055267;28;20013;-78
2023/09/19 06:32:44;;;;;;;8.88;1.52;;;15.60;91.90;;;;;;5055181;28;20048;-78
2023/09/19 06:35:12;;;;;;;6.45;1.42;;;15.60;92.00;;;;;;5056054;28;20072;-78
2023/09/19 06:37:38;;;;;;;7.00;1.48;;;15.60;92.00;;;;;;5056047;28;20032;-78
2023/09/19 06:40:15;;;;;;;4.53;1.17;;;15.60;92.00;;;;;;5054780;28;20038;-78
2023/09/19 06:42:44;;;;;;;11.65;2.00;;;15.70;92.00;;;;;;5039326;28;20033;-78
2023/09/19 06:45:13;;;;;;;8.77;1.48;;;15.60;92.20;;;;;;5054865;28;20022;-78
2023/09/19 06:47:39;;;;;;;11.70;2.10;;;15.60;92.20;;;;;;5054801;28;20064;-78
2023/09/19 06:50:08;;;;;;;6.80;1.50;;;15.60;92.30;;;;;;5038354;28;20048;-78
2023/09/19 06:52:35;;;;;;;6.50;1.80;;;15.70;92.30;;;;;;5038673;28;20021;-78
2023/09/19 06:55:03;;;;;;;4.57;1.23;;;15.70;92.30;;;;;;5054836;28;20044;-77
2023/09/19 06:57:30;;;;;;;10.77;1.67;;;15.70;92.40;;;;;;5055653;28;20052;-78
2023/09/19 06:59:56;;;;;;;10.73;1.80;;;15.70;92.50;;;;;;5054663;28;20021;-78
2023/09/19 07:02:21;;;;;;;4.53;1.40;;;15.60;92.60;;;;;;5054544;28;20439;-78
2023/09/19 07:04:47;;;;;;;8.02;2.13;;;15.70;92.70;;;;;;5054497;28;20056;-78
2023/09/19 07:07:13;;;;;;;5.28;1.38;;;15.70;92.70;;;;;;5054443;28;20067;-77
2023/09/19 07:09:39;;;;;;;9.68;2.03;;;15.70;92.80;;;;;;5055436;28;20022;-78
2023/09/19 07:12:06;;;;;;;9.60;1.75;;;15.80;92.70;;;;;;5037904;28;20021;-78
2023/09/19 07:14:32;;;;;;;5.20;1.20;;;15.70;92.60;;;;;;5037826;28;20022;-78
2023/09/19 07:16:59;;;;;;;4.85;1.50;;;15.70;92.50;;;;;;5055338;28;20037;-78
2023/09/19 07:19:28;;;;;;;8.77;1.60;;;15.80;92.80;;;;;;5054293;28;20021;-78
2023/09/19 07:21:54;;;;;;;10.45;1.60;;;15.80;92.90;;;;;;5055223;28;20025;-78
2023/09/19 07:24:22;;;;;;;6.55;1.38;;;15.80;92.80;;;;;;5055195;28;20085;-78
2023/09/19 07:26:48;;;;;;;6.57;1.52;;;15.90;92.70;;;;;;5053998;28;20053;-78
2023/09/19 07:29:14;;;;;;;7.53;1.77;;;15.90;92.80;;;;;;5054253;28;20078;-78
2023/09/19 07:31:39;;;;;;;5.90;1.45;;;15.80;92.90;;;;;;5055085;28;20026;-78
2023/09/19 07:34:05;;;;;;;5.93;1.60;;;15.90;93.00;;;;;;5037363;28;20041;-78
2023/09/19 07:36:32;;;;;;;8.77;1.75;;;15.90;93.00;;;;;;5053944;28;20105;-78
2023/09/19 07:38:57;;;;;;;12.45;1.92;;;15.90;92.80;;;;;;5037512;28;20024;-78
2023/09/19 07:41:24;;;;;;;6.38;1.70;;;15.90;92.80;;;;;;5054646;28;20065;-78
2023/09/19 07:43:49;;;;;;;8.15;1.88;;;15.90;92.90;;;;;;5037272;28;20033;-78
2023/09/19 07:46:15;;;;;;;6.72;1.63;;;16.00;92.90;;;;;;5037330;28;20022;-79
2023/09/19 07:48:44;;;;;;;6.05;1.30;;;16.00;92.90;;;;;;5037242;28;20037;-78
2023/09/19 07:51:10;;;;;;;7.32;1.67;;;16.00;92.90;;;;;;5053750;28;20030;-77
2023/09/19 07:53:37;;;;;;;10.63;1.65;;;16.00;93.00;;;;;;5053648;28;20037;-78
2023/09/19 07:56:07;;;;;;;5.22;1.17;;;16.10;93.20;;;;;;5053140;28;20079;-78
2023/09/19 07:58:33;;;;;;;5.20;1.88;;;16.20;93.00;;;;;;5053575;28;20041;-78
2023/09/19 08:01:04;;;;;;;11.40;1.83;;;16.30;92.90;;;;;;5053519;28;20022;-78
2023/09/19 08:03:29;;;;;;;7.45;1.65;;;16.30;92.90;;;;;;5036903;28;20021;-78
2023/09/19 08:05:57;;;;;;;9.63;1.90;;;16.40;92.90;;;;;;5054364;28;20101;-78
2023/09/19 08:08:23;;;;;;;9.02;1.80;;;16.50;92.90;;;;;;5053282;28;20049;-77
2023/09/19 08:10:53;;;;;;;5.45;1.38;;;16.50;92.60;;;;;;5020443;28;20052;-78
2023/09/19 08:13:20;;;;;;;9.23;1.60;;;16.60;92.80;;;;;;5053312;28;20021;-78
2023/09/19 08:15:45;;;;;;;13.90;1.90;;;16.70;92.50;;;;;;5036863;28;20022;-78
2023/09/19 08:18:12;;;;;;;9.90;2.20;;;16.70;92.20;;;;;;5054270;28;20045;-78
2023/09/19 08:20:37;;;;;;;10.05;1.88;;;16.60;92.00;;;;;;5054113;28;20041;-78
2023/09/19 08:23:04;;;;;;;6.55;1.25;;;16.70;92.50;;;;;;5053128;28;20117;-78
2023/09/19 08:25:29;;;;;;;11.65;2.28;;;16.70;92.50;;;;;;5053110;28;20036;-78
2023/09/19 08:27:58;;;;;;;9.25;1.88;;;16.80;92.50;;;;;;5052889;28;20045;-78
2023/09/19 08:30:24;;;;;;;7.78;2.03;;;16.90;92.40;;;;;;5052882;28;20025;-78
2023/09/19 08:32:59;;;;;;;11.55;2.33;;;16.90;92.20;;;;;;5052858;28;20045;-78
2023/09/19 08:35:25;;;;;;;8.10;1.85;;;16.90;91.80;;;;;;5036301;28;20045;-77
2023/09/19 08:37:51;;;;;;;5.47;1.75;;;16.90;91.80;;;;;;5053004;28;20048;-78
2023/09/19 08:40:17;;;;;;;7.57;1.48;;;17.00;92.10;;;;;;5052673;28;20149;-78
2023/09/19 08:42:50;;;;;;;6.05;1.48;;;17.00;91.70;;;;;;5052757;28;20041;-78
2023/09/19 08:45:17;;;;;;;5.97;1.23;;;17.00;91.20;;;;;;5053723;28;20029;-78
2023/09/19 08:48:00;;;;;;;4.80;1.60;;;17.10;91.30;;;;;;5052737;28;20033;-78
2023/09/19 08:50:30;;;;;;;7.35;1.60;;;17.20;91.20;;;;;;5052593;28;20021;-78
2023/09/19 08:53:00;;;;;;;11.73;2.45;;;17.20;91.10;;;;;;5053548;28;20026;-78
2023/09/19 08:55:31;;;;;;;8.43;1.33;;;17.20;91.40;;;;;;5052652;28;20037;-78
2023/09/19 08:58:10;;;;;;;8.15;2.00;;;17.30;91.10;;;;;;5052447;28;20025;-78
2023/09/19 09:00:36;;;;;;;4.32;1.23;;;17.40;90.80;;;;;;5053467;28;20032;-78
2023/09/19 09:03:06;;;;;;;7.53;1.48;;;17.40;90.70;;;;;;5053389;28;20033;-78
2023/09/19 09:05:32;;;;;;;7.15;1.25;;;17.40;90.60;;;;;;5051981;28;20029;-78
2023/09/19 09:07:59;;;;;;;5.90;1.40;;;17.50;91.30;;;;;;5052003;28;20457;-78
2023/09/19 09:10:26;;;;;;;5.38;1.85;;;17.40;90.50;;;;;;5052388;28;20081;-77
2023/09/19 09:12:55;;;;;;;5.03;1.50;;;17.50;90.30;;;;;;5052257;28;20026;-78
2023/09/19 09:15:23;;;;;;;7.82;1.42;;;17.60;90.60;;;;;;5052358;28;20026;-78
2023/09/19 09:17:50;;;;;;;5.22;1.65;;;17.60;90.40;;;;;;5053228;28;20026;-78
2023/09/19 09:20:17;;;;;;;8.82;1.70;;;17.60;90.20;;;;;;5052204;28;20045;-78
2023/09/19 09:23:04;;;;;;;6.50;1.75;;;17.80;90.50;;;;;;5052383;28;20026;-78
2023/09/19 09:25:56;;;;;;;10.23;1.90;;;18.00;90.40;;;;;;5053325;28;20021;-78
2023/09/19 09:28:28;;;;;;;6.43;1.63;;;18.00;89.00;;;;;;5052180;28;20048;-78
2023/09/19 09:30:54;;;;;;;6.75;1.35;;;18.00;87.30;;;;;;5052190;28;20048;-78
2023/09/19 09:33:21;;;;;;;6.07;2.03;;;18.10;88.50;;;;;;5052186;28;20022;-78
2023/09/19 09:36:02;;;;;;;9.60;1.77;;;18.10;87.70;;;;;;5052937;28;20048;-78
2023/09/19 09:38:32;;;;;;;9.57;1.88;;;18.20;87.90;;;;;;5052014;28;20048;-78
2023/09/19 09:41:00;;;;;;;6.00;1.50;;;18.30;89.30;;;;;;5051992;28;20463;-78
2023/09/19 09:43:29;;;;;;;7.43;1.50;;;18.30;87.30;;;;;;5035961;28;20093;-78
2023/09/19 09:49:14;;;;;;;5.38;1.48;;;18.50;88.40;;;;;;5053048;28;20037;-78
2023/09/19 09:51:33;;;;;;;5.40;1.73;;;18.60;88.10;;;;;;5052995;28;20448;-78
2023/09/19 09:54:12;;;;;;;6.32;1.83;;;18.50;84.50;;;;;;5051975;28;20026;-78
2023/09/19 09:57:05;;;;;;;9.35;1.55;;;18.50;83.80;;;;;;5051900;28;20366;-77
2023/09/19 09:59:47;;;;;;;11.35;1.65;;;18.50;83.90;;;;;;5052937;28;20081;-78
2023/09/19 10:02:23;;;;;;;17.55;2.65;;;18.60;85.10;;;;;;5051830;28;20087;-78
2023/09/19 10:07:38;;;;;;;6.85;1.45;;;18.80;86.00;;;;;;5052915;28;20119;-79
2023/09/19 10:10:28;;;;;;;4.75;1.50;;;18.80;83.90;;;;;;5035582;28;20026;-78
2023/09/19 10:12:56;;;;;;;7.72;1.73;;;18.90;85.00;;;;;;5052231;28;20036;-78
2023/09/19 10:15:26;;;;;;;7.38;1.38;;;19.00;84.30;;;;;;5052746;28;20014;-78
2023/09/19 10:17:58;;;;;;;8.90;1.88;;;19.10;83.40;;;;;;5053031;28;20018;-78
2023/09/19 10:20:37;;;;;;;7.20;1.77;;;19.10;84.50;;;;;;5056474;28;20028;-78
2023/09/19 10:23:11;;;;;;;9.18;1.95;;;19.10;83.40;;;;;;5055724;28;20026;-77
2023/09/19 10:25:45;;;;;;;6.78;1.50;;;19.20;82.00;;;;;;5038846;28;20037;-78
2023/09/19 10:28:13;;;;;;;7.30;1.50;;;19.20;82.40;;;;;;5039447;28;20034;-78
2023/09/19 10:30:47;;;;;;;7.82;1.65;;;19.20;83.20;;;;;;5056211;28;20021;-78
2023/09/19 10:33:16;;;;;;;8.15;1.85;;;19.20;82.10;;;;;;5055181;28;20441;-78
2023/09/19 10:35:47;;;;;;;7.97;1.83;;;19.20;82.30;;;;;;5055130;28;20068;-78
2023/09/19 10:38:17;;;;;;;6.50;1.85;;;19.20;82.00;;;;;;5055094;28;20032;-78
2023/09/19 10:40:43;;;;;;;7.93;1.88;;;19.10;81.90;;;;;;5054711;28;20038;-78
2023/09/19 10:43:20;;;;;;;4.57;1.52;;;19.00;81.50;;;;;;5055194;28;20033;-78
2023/09/19 10:45:49;;;;;;;7.65;1.50;;;19.10;82.50;;;;;;5038888;28;20102;-78
2023/09/19 10:48:19;;;;;;;4.68;1.40;;;19.40;83.00;;;;;;5054815;28;20053;-78
2023/09/19 10:50:49;;;;;;;5.38;1.70;;;19.40;81.50;;;;;;5054877;28;20080;-78
2023/09/19 10:53:16;;;;;;;7.85;1.70;;;19.40;80.80;;;;;;5054822;28;20029;-79
2023/09/19 10:55:54;;;;;;;8.98;1.92;;;19.50;82.60;;;;;;5054679;28;20028;-78
2023/09/19 10:58:46;;;;;;;8.38;1.90;;;19.40;79.70;;;;;;5055787;28;20029;-78
2023/09/19 11:01:14;;;;;;;4.87;1.13;;;19.50;81.40;;;;;;5037066;28;20041;-78
2023/09/19 11:03:49;;;;;;;7.45;1.30;;;19.60;80.10;;;;;;5022315;28;20028;-78
2023/09/19 11:06:19;;;;;;;5.95;1.38;;;19.70;80.50;;;;;;5054706;28;20056;-78
2023/09/19 11:09:26;;;;;;;7.80;1.98;;;19.80;79.30;;;;;;5055640;28;20053;-78
2023/09/19 11:11:52;;;;;;;3.65;1.20;;;19.80;80.20;;;;;;5055041;28;20066;-78
2023/09/19 11:14:24;;;;;;;5.25;1.23;;;19.80;80.20;;;;;;5038111;28;20032;-78
2023/09/19 11:17:05;;;;;;;5.10;1.52;;;19.80;81.00;;;;;;5054405;28;20083;-77
2023/09/19 11:22:58;;;;;;;4.38;1.20;;;19.70;77.80;;;;;;5055203;28;20125;-78
2023/09/19 11:25:30;;;;;;;5.60;1.33;;;19.70;79.40;;;;;;5054470;28;20060;-78
2023/09/19 11:28:05;;;;;;;7.00;1.48;;;19.70;79.20;;;;;;5054027;28;20033;-78
2023/09/19 11:30:32;;;;;;;6.78;1.30;;;19.70;77.60;;;;;;5053126;28;20038;-77
2023/09/19 11:33:23;;;;;;;5.43;1.40;;;19.70;78.80;;;;;;5054067;28;20028;-78
2023/09/19 11:36:36;;;;;;;6.15;1.10;;;19.80;79.30;;;;;;5053938;28;20026;-78
2023/09/19 11:39:08;;;;;;;2.33;1.00;;;20.00;80.30;;;;;;5045370;28;20063;-78
2023/09/19 11:41:39;;;;;;;7.32;1.30;;;20.00;78.80;;;;;;5053814;28;20113;-77
2023/09/19 11:44:10;;;;;;;6.50;1.13;;;20.00;78.60;;;;;;5053970;28;20088;-78
2023/09/19 11:46:52;;;;;;;3.80;1.00;;;20.20;80.50;;;;;;5054721;28;20049;-77
2023/09/19 11:49:40;;;;;;;3.77;1.00;;;20.30;78.20;;;;;;5053883;28;20033;-78
2023/09/19 11:52:08;;;;;;;5.25;1.20;;;20.30;78.10;;;;;;5053763;28;20052;-78
2023/09/19 11:54:36;;;;;;;5.65;1.20;;;20.40;77.40;;;;;;5053685;28;20029;-77
2023/09/19 11:57:02;;;;;;;3.78;1.08;;;20.50;75.70;;;;;;5054624;28;20021;-77
2023/09/19 11:59:30;;;;;;;7.57;1.08;;;20.50;75.70;;;;;;5053720;28;20033;-78
2023/09/19 12:02:06;;;;;;;7.07;1.15;;;20.50;76.50;;;;;;5036978;28;20026;-78
2023/09/19 12:04:39;;;;;;;6.93;1.25;;;20.60;75.80;;;;;;5054567;28;20036;-77
2023/09/19 12:07:16;;;;;;;2.70;1.00;;;20.60;75.50;;;;;;5054368;28;20034;-78
2023/09/19 12:09:49;;;;;;;4.60;0.73;;;20.60;75.70;;;;;;5037689;28;20025;-78
2023/09/19 12:12:33;;;;;;;5.50;1.80;;;20.60;75.70;;;;;;5037621;28;20022;-78
2023/09/19 12:14:59;;;;;;;7.30;1.70;;;20.60;75.60;;;;;;5053285;28;20025;-78
2023/09/19 12:17:42;;;;;;;2.75;0.90;;;20.60;76.40;;;;;;5020295;28;20056;-77
2023/09/19 12:20:15;;;;;;;2.15;0.82;;;20.60;75.00;;;;;;5054177;28;20081;-78
2023/09/19 12:22:43;;;;;;;8.05;0.95;;;20.70;76.90;;;;;;5054222;28;20473;-78
2023/09/19 12:25:11;;;;;;;3.83;0.85;;;20.80;74.80;;;;;;5053094;28;20025;-78
2023/09/19 12:27:46;;;;;;;3.75;0.73;;;20.80;75.30;;;;;;5053951;28;20025;-77
2023/09/19 12:30:19;;;;;;;5.95;1.10;;;20.80;75.00;;;;;;5053991;28;20018;-77
2023/09/19 12:32:46;;;;;;;;;;;20.70;74.10;;;;;;5053382;28;20017;-78
2023/09/19 12:35:29;;;;;;;4.28;0.77;;;20.70;74.50;;;;;;5053857;28;19909;-78
2023/09/19 12:37:55;;;;;;;4.90;1.10;;;20.60;74.70;;;;;;5052851;28;20041;-77
2023/09/19 12:40:28;;;;;;;4.15;1.00;;;20.60;75.00;;;;;;5053524;28;20056;-78
2023/09/19 12:43:02;;;;;;;6.55;1.00;;;20.70;74.50;;;;;;5052800;28;20049;-78
2023/09/19 12:45:30;;;;;;;4.75;0.90;;;20.70;75.00;;;;;;5052905;28;20040;-78
2023/09/19 12:48:33;;;;;;;1.60;0.68;;;20.60;74.90;;;;;;5052600;28;20030;-78
2023/09/19 12:51:06;;;;;;;;;;;20.50;74.90;;;;;;5054070;28;20075;-78
2023/09/19 12:53:40;;;;;;;4.25;1.00;;;20.50;75.60;;;;;;5052563;28;20294;-77
2023/09/19 12:56:08;;;;;;;3.33;0.60;;;20.40;75.40;;;;;;5053523;28;20018;-78
2023/09/19 12:58:34;;;;;;;1.42;0.57;;;20.30;74.40;;;;;;5052715;28;20030;-77
2023/09/19 13:01:05;;;;;;;2.08;0.60;;;20.20;76.30;;;;;;5052447;28;20033;-77
2023/09/19 13:03:35;;;;;;;3.80;0.98;;;20.20;75.50;;;;;;5052463;28;20021;-78
2023/09/19 13:06:04;;;;;;;3.05;0.60;;;20.10;76.00;;;;;;5053506;28;20089;-76
2023/09/19 13:08:41;;;;;;;3.42;0.80;;;20.10;76.30;;;;;;5052391;28;20366;-77